Terminal Aerodrome Forecast
Issued by NWS Corpus Christi, TX

Current Version | Previous Version | Text Only | Print | Product List | Glossary On
Versions: 1 2 3 4 5 6 7 8 9 10 11 12 13 14 15 16 17 18 19
000
FTUS44 KCRP 282328
TAFCRP
TAF
KCRP 282328Z 2900/2924 14018G26KT P6SM FEW250
     FM290200 14011KT P6SM FEW015
      TEMPO 2909/2913 BKN015
     FM291400 15015KT P6SM SCT020=

USA.gov is the U.S. government's official web portal to all federal, state and local government web resources and services.